createdAt,value
2024-02-27T00:00:11.476Z,1.50
2024-02-27T00:01:11.739Z,1.50
2024-02-27T00:02:12.013Z,1.50
2024-02-27T00:03:12.331Z,1.50
2024-02-27T00:04:12.611Z,1.50
2024-02-27T00:05:12.877Z,1.30
2024-02-27T00:06:13.287Z,1.40
2024-02-27T00:07:13.828Z,1.40
2024-02-27T00:08:13.776Z,1.30
2024-02-27T00:09:14.078Z,1.30
2024-02-27T00:10:14.364Z,1.40
2024-02-27T00:11:14.768Z,1.60
2024-02-27T00:12:15.053Z,1.50
2024-02-27T00:13:15.298Z,1.60
2024-02-27T00:14:15.573Z,1.70
2024-02-27T00:15:15.868Z,1.50
2024-02-27T00:16:16.125Z,1.40
2024-02-27T00:17:16.392Z,1.30
2024-02-27T00:18:16.779Z,1.40
2024-02-27T00:19:16.988Z,1.40
2024-02-27T00:20:17.260Z,1.70
2024-02-27T00:21:17.579Z,1.60
2024-02-27T00:22:17.837Z,1.60
2024-02-27T00:23:18.125Z,1.20
2024-02-27T00:24:18.446Z,1.30
2024-02-27T00:25:20.603Z,1.60
2024-02-27T00:26:19.116Z,1.20
2024-02-27T00:27:19.351Z,1.50
2024-02-27T00:28:19.651Z,1.40
2024-02-27T00:29:19.928Z,1.30
2024-02-27T00:30:20.225Z,1.40
2024-02-27T00:31:20.487Z,1.50
2024-02-27T00:32:20.782Z,1.50
2024-02-27T00:33:21.129Z,1.50
2024-02-27T00:34:21.529Z,1.30
2024-02-27T00:35:21.750Z,1.40
2024-02-27T00:36:22.033Z,1.40
2024-02-27T00:37:22.327Z,1.30
2024-02-27T00:38:22.648Z,1.10
2024-02-27T00:39:22.949Z,1.20
2024-02-27T00:40:23.204Z,1.40
2024-02-27T00:41:23.476Z,1.30
2024-02-27T00:42:23.881Z,1.40
2024-02-27T00:43:24.080Z,1.40
2024-02-27T00:44:24.360Z,1.20
2024-02-27T00:45:24.685Z,1.40
2024-02-27T00:46:25.184Z,1.40
2024-02-27T00:47:25.620Z,1.40
2024-02-27T00:48:26.142Z,1.40
2024-02-27T00:49:26.408Z,1.20
2024-02-27T00:50:26.529Z,1.40
2024-02-27T00:51:26.507Z,1.40
2024-02-27T00:52:26.771Z,1.30
2024-02-27T00:53:27.029Z,1.20
2024-02-27T00:54:27.362Z,1.30
2024-02-27T00:55:27.668Z,1.20
2024-02-27T00:56:27.959Z,1.50
2024-02-27T00:57:28.230Z,1.40
2024-02-27T00:58:28.527Z,1.50
2024-02-27T00:59:28.804Z,1.30
2024-02-27T01:00:29.125Z,1.30
2024-02-27T01:01:29.480Z,1.40
2024-02-27T01:02:29.756Z,1.10
2024-02-27T01:03:30.083Z,1.60
2024-02-27T01:04:30.358Z,1.40
2024-02-27T01:05:30.678Z,1.40
2024-02-27T01:06:31.062Z,1.30
2024-02-27T01:07:31.348Z,1.40
2024-02-27T01:08:31.597Z,1.70
2024-02-27T01:09:31.902Z,1.30
2024-02-27T01:10:32.186Z,1.40
2024-02-27T01:11:32.459Z,1.60
2024-02-27T01:12:32.792Z,1.40
2024-02-27T01:13:33.025Z,1.20
2024-02-27T01:14:33.325Z,1.50
2024-02-27T01:15:33.738Z,1.40
2024-02-27T01:16:33.860Z,1.30
2024-02-27T01:17:34.128Z,1.60
2024-02-27T01:18:34.747Z,1.20
2024-02-27T01:19:34.714Z,1.50
2024-02-27T01:20:35.035Z,1.40
2024-02-27T01:21:35.356Z,1.50
2024-02-27T01:22:35.629Z,1.50
2024-02-27T01:23:35.890Z,1.70
2024-02-27T01:24:36.231Z,1.40
2024-02-27T01:25:36.486Z,1.70
2024-02-27T01:26:36.774Z,1.30
2024-02-27T01:27:37.144Z,1.50
2024-02-27T01:28:37.303Z,1.50
2024-02-27T01:29:37.582Z,1.30
2024-02-27T01:30:38.024Z,1.30
2024-02-27T01:31:38.192Z,1.40
2024-02-27T01:32:38.500Z,1.20
2024-02-27T01:33:38.851Z,1.60
2024-02-27T01:34:39.214Z,1.20
2024-02-27T01:35:39.358Z,1.30
2024-02-27T01:36:39.622Z,1.40
2024-02-27T01:37:39.877Z,1.30
2024-02-27T01:38:40.143Z,1.50
2024-02-27T01:39:40.448Z,1.20
2024-02-27T01:40:40.704Z,1.50
2024-02-27T01:41:41.002Z,1.60
2024-02-27T01:42:41.336Z,1.20
2024-02-27T01:43:41.589Z,1.30
2024-02-27T01:44:41.905Z,1.30
2024-02-27T01:45:42.298Z,1.30
2024-02-27T01:46:42.507Z,1.40
2024-02-27T01:47:42.827Z,1.50
2024-02-27T01:48:43.230Z,1.60
2024-02-27T01:49:43.465Z,1.40
2024-02-27T01:50:43.739Z,1.30
2024-02-27T01:51:44.020Z,1.40
2024-02-27T01:52:44.286Z,1.30
2024-02-27T01:53:44.660Z,1.30
2024-02-27T01:54:44.901Z,1.40
2024-02-27T01:55:45.184Z,1.20
2024-02-27T01:56:45.447Z,1.30
2024-02-27T01:57:45.822Z,1.50
2024-02-27T01:58:46.077Z,1.30
2024-02-27T01:59:46.354Z,1.60
2024-02-27T02:00:46.736Z,1.40
2024-02-27T02:01:46.979Z,1.20
2024-02-27T02:02:47.249Z,1.40
2024-02-27T02:03:47.592Z,1.30
2024-02-27T02:04:47.818Z,1.30
2024-02-27T02:05:48.195Z,1.40
2024-02-27T02:06:48.371Z,1.10
2024-02-27T02:07:48.643Z,1.50
2024-02-27T02:08:48.925Z,1.40
2024-02-27T02:09:49.219Z,1.30
2024-02-27T02:10:49.504Z,1.50
2024-02-27T02:11:49.782Z,1.50
2024-02-27T02:12:50.064Z,1.40
2024-02-27T02:13:50.358Z,1.50
2024-02-27T02:14:50.621Z,1.40
2024-02-27T02:15:50.907Z,1.40
2024-02-27T02:16:51.227Z,1.50
2024-02-27T02:17:51.543Z,1.50
2024-02-27T02:18:51.870Z,1.40
2024-02-27T02:19:52.265Z,1.60
2024-02-27T02:20:52.398Z,1.50
2024-02-27T02:21:52.686Z,1.50
2024-02-27T02:22:52.963Z,1.50
2024-02-27T02:23:53.252Z,1.50
2024-02-27T02:24:53.541Z,1.30
2024-02-27T02:25:53.918Z,1.60
2024-02-27T02:26:54.064Z,1.30
2024-02-27T02:27:54.335Z,1.40
2024-02-27T02:28:54.607Z,1.30
2024-02-27T02:29:54.939Z,1.30
2024-02-27T02:30:55.173Z,1.30
2024-02-27T02:31:55.445Z,1.30
2024-02-27T02:32:55.826Z,1.50
2024-02-27T02:33:56.095Z,1.40
2024-02-27T02:34:56.371Z,1.50
2024-02-27T02:35:56.687Z,1.50
2024-02-27T02:36:56.911Z,1.60
2024-02-27T02:37:57.188Z,1.60
2024-02-27T02:38:57.519Z,1.50
2024-02-27T02:39:57.746Z,1.50
2024-02-27T02:40:58.020Z,1.50
2024-02-27T02:41:58.289Z,1.50
2024-02-27T02:42:58.536Z,1.60
2024-02-27T02:43:58.806Z,1.50
2024-02-27T02:44:59.100Z,1.60
2024-02-27T02:45:59.376Z,1.30
2024-02-27T02:46:59.648Z,1.50
2024-02-27T02:48:00.150Z,1.40
2024-02-27T02:49:00.334Z,1.50
2024-02-27T02:50:00.744Z,1.40
2024-02-27T02:51:00.900Z,1.50
2024-02-27T02:52:01.140Z,1.50
2024-02-27T02:53:01.445Z,1.40
2024-02-27T02:54:01.775Z,1.40
2024-02-27T02:55:02.026Z,1.80
2024-02-27T02:56:02.318Z,1.60
2024-02-27T02:57:02.591Z,1.60
2024-02-27T02:58:02.877Z,1.70
2024-02-27T02:59:03.133Z,1.60
2024-02-27T03:00:03.507Z,1.60
2024-02-27T03:01:03.777Z,1.60
2024-02-27T03:02:04.037Z,1.50
2024-02-27T03:03:04.351Z,1.50
2024-02-27T03:04:04.617Z,1.30
2024-02-27T03:05:04.953Z,1.40
2024-02-27T03:06:05.237Z,1.40
2024-02-27T03:07:05.550Z,1.70
2024-02-27T03:08:05.797Z,1.50
2024-02-27T03:09:06.101Z,1.50
2024-02-27T03:10:06.354Z,1.50
2024-02-27T03:11:06.662Z,1.50
2024-02-27T03:12:06.943Z,1.70
2024-02-27T03:13:07.183Z,1.20
2024-02-27T03:14:07.671Z,1.30
2024-02-27T03:15:07.806Z,1.20
2024-02-27T03:16:07.951Z,1.80
2024-02-27T03:17:08.219Z,1.30
2024-02-27T03:18:08.777Z,1.30
2024-02-27T03:19:08.968Z,1.40
2024-02-27T03:20:09.242Z,1.30
2024-02-27T03:21:09.531Z,1.40
2024-02-27T03:22:09.789Z,1.40
2024-02-27T03:23:10.067Z,1.40
2024-02-27T03:24:10.381Z,1.40
2024-02-27T03:25:10.631Z,1.40
2024-02-27T03:26:10.920Z,1.60
2024-02-27T03:27:11.218Z,1.50
2024-02-27T03:28:11.531Z,1.50
2024-02-27T03:29:11.804Z,1.30
2024-02-27T03:30:12.317Z,1.70
2024-02-27T03:31:12.400Z,1.30
2024-02-27T03:32:12.681Z,1.60
2024-02-27T03:33:13.049Z,1.20
2024-02-27T03:34:13.411Z,1.70
2024-02-27T03:35:13.614Z,1.50
2024-02-27T03:36:13.966Z,1.50
2024-02-27T03:37:14.192Z,1.60
2024-02-27T03:38:14.490Z,1.50
2024-02-27T03:39:14.767Z,1.30
2024-02-27T03:40:15.043Z,1.50
2024-02-27T03:41:15.313Z,1.30
2024-02-27T03:42:15.618Z,1.70
2024-02-27T03:43:15.918Z,1.60
2024-02-27T03:44:16.217Z,1.60
2024-02-27T03:45:16.532Z,1.70
2024-02-27T03:46:16.949Z,1.80
2024-02-27T03:47:17.270Z,1.40
2024-02-27T03:48:17.825Z,1.40
2024-02-27T03:49:18.284Z,1.50
2024-02-27T03:50:18.510Z,1.50
2024-02-27T03:51:18.917Z,1.30
2024-02-27T03:52:18.606Z,1.70
2024-02-27T03:53:18.884Z,1.40
2024-02-27T03:54:19.152Z,1.40
2024-02-27T03:55:19.405Z,1.20
2024-02-27T03:56:19.691Z,1.40
2024-02-27T03:57:19.963Z,1.40
2024-02-27T03:58:20.220Z,1.40
2024-02-27T03:59:20.464Z,1.30
2024-02-27T04:00:20.775Z,1.50
2024-02-27T04:01:21.068Z,1.40
2024-02-27T04:02:21.337Z,1.60
2024-02-27T04:03:21.603Z,1.50
2024-02-27T04:04:21.864Z,1.30
2024-02-27T04:05:22.148Z,1.50
2024-02-27T04:06:22.467Z,1.30
2024-02-27T04:07:22.759Z,1.30
2024-02-27T04:08:23.039Z,1.20
2024-02-27T04:09:23.344Z,1.40
2024-02-27T04:10:23.597Z,1.40
2024-02-27T04:11:23.900Z,1.70
2024-02-27T04:12:24.155Z,1.50
2024-02-27T04:13:24.410Z,1.40
2024-02-27T04:14:24.700Z,1.50
2024-02-27T04:15:25.008Z,1.80
2024-02-27T04:16:25.260Z,1.40
2024-02-27T04:17:25.551Z,1.60
2024-02-27T04:18:25.899Z,1.60
2024-02-27T04:19:26.216Z,1.40
2024-02-27T04:20:26.485Z,1.60
2024-02-27T04:21:26.705Z,1.50
2024-02-27T04:22:26.996Z,1.50
2024-02-27T04:23:27.279Z,1.50
2024-02-27T04:24:27.576Z,1.50
2024-02-27T04:25:27.821Z,1.40
2024-02-27T04:26:28.103Z,1.60
2024-02-27T04:27:28.389Z,1.70
2024-02-27T04:28:30.232Z,1.50
2024-02-27T04:29:28.940Z,1.40
2024-02-27T04:30:29.244Z,1.30
2024-02-27T04:31:29.540Z,1.60
2024-02-27T04:32:29.848Z,1.50
2024-02-27T04:33:30.239Z,1.50
2024-02-27T04:34:30.616Z,1.60
2024-02-27T04:35:30.653Z,1.70
2024-02-27T04:36:30.964Z,1.80
2024-02-27T04:37:31.218Z,1.50
2024-02-27T04:38:31.504Z,1.60
2024-02-27T04:39:31.803Z,1.60
2024-02-27T04:40:32.049Z,1.60
2024-02-27T04:41:32.333Z,1.20
2024-02-27T04:42:32.679Z,1.80
2024-02-27T04:43:33.871Z,1.40
2024-02-27T04:44:33.199Z,1.60
2024-02-27T04:45:33.563Z,1.70
2024-02-27T04:46:33.835Z,1.30
2024-02-27T04:47:34.178Z,1.80
2024-02-27T04:48:34.762Z,1.70
2024-02-27T04:49:34.793Z,1.30
2024-02-27T04:50:35.048Z,1.50
2024-02-27T04:51:35.405Z,1.40
2024-02-27T04:52:35.672Z,1.40
2024-02-27T04:53:35.907Z,1.30
2024-02-27T04:54:36.229Z,1.40
2024-02-27T04:55:36.468Z,1.20
2024-02-27T04:56:36.739Z,1.30
2024-02-27T04:57:37.165Z,1.40
2024-02-27T04:58:37.391Z,1.50
2024-02-27T04:59:37.709Z,1.30
2024-02-27T05:00:38.070Z,1.70
2024-02-27T05:01:38.179Z,1.40
2024-02-27T05:02:38.461Z,1.50
2024-02-27T05:03:38.794Z,1.40
2024-02-27T05:04:39.048Z,1.40
2024-02-27T05:05:39.326Z,1.60
2024-02-27T05:06:39.683Z,1.40
2024-02-27T05:07:39.932Z,1.10
2024-02-27T05:08:40.202Z,1.50
2024-02-27T05:09:40.481Z,1.50
2024-02-27T05:10:40.874Z,1.50
2024-02-27T05:11:40.989Z,1.70
2024-02-27T05:12:41.274Z,1.70
2024-02-27T05:13:41.557Z,1.60
2024-02-27T05:14:41.822Z,1.40
2024-02-27T05:15:42.136Z,1.40
2024-02-27T05:16:42.396Z,1.50
2024-02-27T05:17:42.707Z,1.40
2024-02-27T05:18:43.026Z,1.40
2024-02-27T05:19:43.247Z,1.70
2024-02-27T05:20:43.519Z,1.50
2024-02-27T05:21:43.822Z,1.70
2024-02-27T05:22:44.074Z,1.70
2024-02-27T05:23:44.334Z,1.40
2024-02-27T05:24:44.644Z,1.50
2024-02-27T05:25:45.654Z,1.40
2024-02-27T05:26:46.141Z,1.50
2024-02-27T05:27:46.425Z,1.20
2024-02-27T05:28:46.779Z,1.70
2024-02-27T05:29:46.124Z,1.30
2024-02-27T05:30:46.454Z,1.50
2024-02-27T05:31:46.719Z,1.60
2024-02-27T05:32:47.024Z,1.50
2024-02-27T05:33:47.343Z,1.50
2024-02-27T05:34:47.713Z,1.50
2024-02-27T05:35:47.941Z,1.50
2024-02-27T05:36:48.238Z,1.60
2024-02-27T05:37:48.491Z,1.20
2024-02-27T05:38:48.793Z,1.20
2024-02-27T05:39:49.067Z,1.70
2024-02-27T05:40:49.355Z,1.50
2024-02-27T05:41:49.635Z,1.20
2024-02-27T05:42:49.880Z,1.40
2024-02-27T05:43:50.152Z,1.40
2024-02-27T05:44:50.447Z,1.40
2024-02-27T05:45:50.827Z,1.60
2024-02-27T05:47:51.357Z,1.30
2024-02-27T05:48:51.647Z,1.40
2024-02-27T05:49:51.957Z,1.40
2024-02-27T05:50:52.215Z,1.50
2024-02-27T05:51:52.516Z,1.30
2024-02-27T05:52:52.777Z,1.60
2024-02-27T05:53:53.066Z,1.60
2024-02-27T05:54:53.336Z,1.40
2024-02-27T05:55:53.636Z,1.40
2024-02-27T05:56:53.911Z,1.30
2024-02-27T05:57:54.191Z,1.60
2024-02-27T05:58:54.466Z,1.40
2024-02-27T05:59:54.763Z,1.40
2024-02-27T06:00:55.097Z,1.50
2024-02-27T06:01:55.388Z,1.40
2024-02-27T06:02:55.692Z,1.60
2024-02-27T06:03:56.167Z,1.60
2024-02-27T06:04:56.297Z,1.70
2024-02-27T06:05:56.688Z,1.30
2024-02-27T06:06:57.037Z,1.50
2024-02-27T06:07:57.184Z,1.40
2024-02-27T06:08:57.472Z,1.40
2024-02-27T06:09:57.760Z,1.70
2024-02-27T06:10:58.061Z,1.70
2024-02-27T06:11:59.619Z,1.60
2024-02-27T06:12:58.577Z,1.50
2024-02-27T06:13:58.888Z,1.60
2024-02-27T06:14:59.178Z,1.70
2024-02-27T06:15:59.445Z,1.60
2024-02-27T06:16:59.756Z,1.50
2024-02-27T06:18:00.113Z,1.60
2024-02-27T06:19:00.445Z,1.70
2024-02-27T06:20:00.754Z,1.40
2024-02-27T06:21:01.137Z,1.50
2024-02-27T06:22:01.305Z,1.50
2024-02-27T06:23:01.589Z,1.40
2024-02-27T06:24:02.086Z,1.60
2024-02-27T06:25:02.125Z,1.40
2024-02-27T06:26:02.430Z,1.50
2024-02-27T06:27:02.705Z,1.50
2024-02-27T06:28:02.991Z,1.40
2024-02-27T06:29:03.269Z,1.60
2024-02-27T06:30:03.610Z,1.80
2024-02-27T06:31:03.843Z,1.50
2024-02-27T06:32:04.751Z,1.40
2024-02-27T06:33:04.554Z,1.60
2024-02-27T06:34:04.854Z,1.70
2024-02-27T06:35:04.966Z,1.50
2024-02-27T06:36:05.268Z,1.80
2024-02-27T06:37:05.519Z,1.60
2024-02-27T06:38:05.807Z,1.30
2024-02-27T06:39:06.095Z,1.40
2024-02-27T06:40:06.394Z,1.60
2024-02-27T06:41:06.672Z,1.50
2024-02-27T06:42:06.999Z,1.50
2024-02-27T06:43:07.272Z,1.40
2024-02-27T06:44:07.601Z,1.60
2024-02-27T06:45:07.954Z,1.60
2024-02-27T06:46:08.149Z,1.50
2024-02-27T06:47:08.419Z,1.40
2024-02-27T06:48:08.823Z,1.60
2024-02-27T06:49:15.563Z,1.40
2024-02-27T06:50:10.331Z,1.50
2024-02-27T06:51:09.535Z,1.40
2024-02-27T06:52:09.798Z,1.60
2024-02-27T06:53:10.076Z,1.60
2024-02-27T06:54:10.458Z,1.40
2024-02-27T06:55:10.810Z,1.70
2024-02-27T06:56:11.085Z,1.50
2024-02-27T06:57:11.863Z,1.60
2024-02-27T06:58:11.715Z,1.70
2024-02-27T06:59:12.026Z,1.30
2024-02-27T07:00:12.375Z,1.60
2024-02-27T07:01:12.703Z,1.40
2024-02-27T07:02:12.868Z,1.60
2024-02-27T07:03:13.223Z,1.60
2024-02-27T07:04:13.540Z,1.70
2024-02-27T07:05:13.763Z,1.70
2024-02-27T07:06:14.175Z,1.60
2024-02-27T07:07:14.377Z,1.60
2024-02-27T07:08:14.658Z,1.40
2024-02-27T07:09:15.013Z,1.50
2024-02-27T07:10:15.308Z,1.60
2024-02-27T07:11:15.661Z,1.60
2024-02-27T07:12:15.978Z,1.40
2024-02-27T07:13:16.269Z,1.40
2024-02-27T07:14:16.592Z,1.70
2024-02-27T07:15:16.921Z,1.70
2024-02-27T07:16:17.203Z,1.70
2024-02-27T07:17:17.513Z,1.50
2024-02-27T07:18:18.329Z,1.90
2024-02-27T07:19:18.201Z,1.40
2024-02-27T07:20:18.361Z,1.50
2024-02-27T07:21:20.523Z,1.40
2024-02-27T07:22:19.027Z,1.60
2024-02-27T07:23:19.341Z,1.60
2024-02-27T07:24:19.729Z,1.50
2024-02-27T07:25:19.997Z,1.60
2024-02-27T07:26:20.314Z,1.40
2024-02-27T07:27:20.714Z,1.30
2024-02-27T07:28:27.151Z,1.50
2024-02-27T07:29:22.193Z,1.40
2024-02-27T07:30:21.611Z,1.60
2024-02-27T07:31:21.930Z,1.50
2024-02-27T07:32:22.226Z,1.70
2024-02-27T07:33:22.689Z,1.70
2024-02-27T07:34:22.884Z,1.60
2024-02-27T07:35:23.159Z,1.40
2024-02-27T07:36:23.550Z,1.70
2024-02-27T07:37:23.814Z,1.70
2024-02-27T07:38:24.129Z,1.70
2024-02-27T07:39:24.471Z,1.60
2024-02-27T07:40:24.841Z,1.50
2024-02-27T07:41:25.001Z,1.50
2024-02-27T07:42:25.374Z,1.50
2024-02-27T07:43:25.669Z,1.70
2024-02-27T07:44:25.978Z,1.80
2024-02-27T07:45:26.364Z,1.80
2024-02-27T07:46:26.672Z,1.60
2024-02-27T07:47:26.987Z,1.60
2024-02-27T07:48:27.457Z,1.60
2024-02-27T07:49:27.551Z,1.80
2024-02-27T07:50:27.877Z,1.40
2024-02-27T07:51:28.224Z,1.80
2024-02-27T07:52:28.530Z,1.70
2024-02-27T07:53:28.829Z,1.70
2024-02-27T07:54:29.204Z,1.60
2024-02-27T07:55:29.471Z,1.70
2024-02-27T07:56:29.803Z,1.70
2024-02-27T07:57:30.173Z,1.40
2024-02-27T07:58:30.433Z,1.90
2024-02-27T07:59:30.757Z,1.80
2024-02-27T08:00:31.150Z,1.50
2024-02-27T08:01:31.571Z,1.60
2024-02-27T08:02:31.663Z,1.40
2024-02-27T08:03:32.094Z,1.30
2024-02-27T08:04:32.466Z,1.40
2024-02-27T08:05:32.709Z,1.90
2024-02-27T08:06:33.146Z,1.30
2024-02-27T08:07:33.275Z,1.60
2024-02-27T08:08:33.564Z,1.30
2024-02-27T08:09:33.894Z,1.60
2024-02-27T08:10:34.171Z,1.50
2024-02-27T08:11:34.492Z,1.80
2024-02-27T08:12:34.920Z,1.50
2024-02-27T08:13:35.067Z,2.00
2024-02-27T08:14:35.393Z,1.60
2024-02-27T08:15:35.652Z,1.70
2024-02-27T08:16:35.978Z,1.90
2024-02-27T08:17:36.305Z,1.60
2024-02-27T08:18:36.753Z,1.50
2024-02-27T08:19:36.944Z,1.50
2024-02-27T08:20:37.252Z,1.80
2024-02-27T08:21:37.603Z,1.60
2024-02-27T08:22:37.917Z,1.60
2024-02-27T08:23:38.194Z,1.80
2024-02-27T08:24:38.620Z,1.60
2024-02-27T08:25:38.782Z,1.50
2024-02-27T08:26:39.088Z,1.50
2024-02-27T08:27:39.410Z,1.50
2024-02-27T08:28:39.673Z,1.70
2024-02-27T08:29:39.981Z,1.50
2024-02-27T08:30:40.388Z,1.80
2024-02-27T08:31:40.567Z,2.00
2024-02-27T08:32:40.927Z,1.40
2024-02-27T08:33:42.205Z,1.40
2024-02-27T08:34:41.453Z,1.40
2024-02-27T08:35:41.710Z,1.70
2024-02-27T08:36:42.146Z,1.70
2024-02-27T08:37:42.329Z,1.40
2024-02-27T08:38:42.649Z,1.50
2024-02-27T08:39:42.986Z,1.40
2024-02-27T08:40:43.303Z,1.70
2024-02-27T08:41:43.606Z,1.60
2024-02-27T08:42:43.992Z,1.80
2024-02-27T08:43:44.484Z,1.80
2024-02-27T08:44:44.650Z,1.40
2024-02-27T08:45:44.960Z,1.50
2024-02-27T08:46:45.439Z,1.50
2024-02-27T08:47:45.559Z,1.60
2024-02-27T08:48:46.003Z,1.60
2024-02-27T08:49:46.339Z,1.50
2024-02-27T08:50:46.473Z,1.40
2024-02-27T08:51:46.792Z,1.50
2024-02-27T08:52:47.101Z,1.60
2024-02-27T08:53:47.411Z,1.50
2024-02-27T08:54:47.764Z,1.70
2024-02-27T08:55:48.039Z,1.60
2024-02-27T08:56:48.366Z,1.50
2024-02-27T08:57:48.688Z,1.80
2024-02-27T08:58:49.936Z,1.80
2024-02-27T08:59:49.354Z,1.80
2024-02-27T09:00:49.777Z,1.50
2024-02-27T09:01:49.922Z,1.70
2024-02-27T09:02:50.261Z,1.60
2024-02-27T09:03:50.665Z,1.70
2024-02-27T09:04:50.890Z,1.50
2024-02-27T09:05:51.243Z,1.40
2024-02-27T09:06:51.576Z,1.50
2024-02-27T09:07:51.897Z,1.50
2024-02-27T09:08:52.230Z,1.70
2024-02-27T09:09:52.516Z,1.20
2024-02-27T09:10:52.826Z,1.70
2024-02-27T09:11:53.121Z,1.60
2024-02-27T09:12:53.456Z,1.80
2024-02-27T09:13:53.788Z,1.70
2024-02-27T09:14:54.082Z,1.50
2024-02-27T09:15:54.439Z,1.60
2024-02-27T09:16:54.701Z,1.50
2024-02-27T09:17:55.104Z,1.50
2024-02-27T09:18:55.601Z,1.80
2024-02-27T09:19:55.792Z,1.40
2024-02-27T09:20:55.993Z,1.80
2024-02-27T09:21:56.294Z,1.60
2024-02-27T09:22:56.625Z,1.60
2024-02-27T09:23:56.947Z,1.60
2024-02-27T09:24:57.266Z,1.60
2024-02-27T09:25:57.558Z,1.60
2024-02-27T09:26:57.908Z,1.40
2024-02-27T09:27:58.256Z,1.40
2024-02-27T09:28:58.557Z,1.60
2024-02-27T09:29:58.850Z,1.80
2024-02-27T09:30:59.161Z,1.80
2024-02-27T09:31:59.481Z,1.50
2024-02-27T09:32:59.832Z,1.60
2024-02-27T09:34:00.247Z,1.40
2024-02-27T09:35:00.558Z,1.90
2024-02-27T09:36:00.709Z,1.70
2024-02-27T09:37:01.029Z,1.30
2024-02-27T09:38:01.338Z,1.20
2024-02-27T09:39:01.715Z,1.50
2024-02-27T09:40:02.178Z,1.60
2024-02-27T09:41:02.256Z,1.70
2024-02-27T09:42:02.588Z,1.70
2024-02-27T09:43:03.043Z,1.50
2024-02-27T09:44:03.184Z,1.80
2024-02-27T09:45:03.573Z,1.80
2024-02-27T09:46:03.825Z,1.70
2024-02-27T09:47:04.036Z,1.60
2024-02-27T09:48:04.598Z,2.00
2024-02-27T09:49:04.739Z,1.60
2024-02-27T09:50:05.074Z,1.50
2024-02-27T09:51:05.269Z,1.50
2024-02-27T09:52:05.569Z,1.80
2024-02-27T09:53:05.901Z,1.80
2024-02-27T09:54:06.104Z,1.80
2024-02-27T09:55:06.418Z,1.60
2024-02-27T09:56:06.716Z,1.50
2024-02-27T09:57:07.077Z,1.50
2024-02-27T09:58:07.443Z,1.70
2024-02-27T09:59:07.636Z,1.60
2024-02-27T10:00:08.190Z,1.70
2024-02-27T10:01:08.347Z,1.80
2024-02-27T10:02:08.601Z,2.00
2024-02-27T10:03:08.908Z,1.80
2024-02-27T10:04:09.202Z,1.70
2024-02-27T10:05:09.370Z,1.80
2024-02-27T10:06:09.732Z,1.80
2024-02-27T10:07:09.920Z,1.70
2024-02-27T10:08:10.227Z,2.00
2024-02-27T10:09:10.556Z,1.60
2024-02-27T10:10:10.862Z,1.70
2024-02-27T10:11:11.158Z,1.80
2024-02-27T10:12:11.514Z,2.00
2024-02-27T10:13:11.799Z,1.50
2024-02-27T10:14:12.118Z,1.80
2024-02-27T10:15:12.518Z,1.80
2024-02-27T10:16:12.694Z,1.80
2024-02-27T10:17:12.985Z,1.80
2024-02-27T10:18:13.408Z,1.80
2024-02-27T10:19:13.684Z,1.60
2024-02-27T10:20:13.851Z,1.70
2024-02-27T10:21:14.141Z,1.60
2024-02-27T10:22:14.386Z,1.50
2024-02-27T10:23:14.681Z,1.80
2024-02-27T10:24:14.968Z,1.60
2024-02-27T10:25:15.236Z,1.90
2024-02-27T10:26:15.549Z,1.80
2024-02-27T10:27:15.861Z,1.80
2024-02-27T10:28:16.136Z,1.70
2024-02-27T10:29:16.432Z,1.70
2024-02-27T10:30:16.989Z,1.80
2024-02-27T10:31:17.012Z,2.00
2024-02-27T10:32:17.365Z,2.00
2024-02-27T10:33:17.787Z,1.60
2024-02-27T10:34:18.080Z,1.50
2024-02-27T10:35:18.731Z,1.90
2024-02-27T10:36:18.548Z,1.70
2024-02-27T10:37:18.839Z,1.70
2024-02-27T10:38:19.167Z,1.50
2024-02-27T10:39:19.494Z,1.70
2024-02-27T10:40:19.780Z,1.50
2024-02-27T10:41:20.089Z,1.50
2024-02-27T10:42:20.409Z,1.60
2024-02-27T10:43:20.686Z,1.40
2024-02-27T10:44:21.008Z,1.90
2024-02-27T10:45:21.337Z,1.50
2024-02-27T10:46:21.603Z,1.90
2024-02-27T10:47:21.928Z,1.80
2024-02-27T10:48:29.368Z,1.50
2024-02-27T10:49:23.681Z,1.70
2024-02-27T10:50:22.831Z,1.80
2024-02-27T10:51:23.039Z,1.80
2024-02-27T10:52:23.294Z,1.50
2024-02-27T10:53:23.613Z,1.90
2024-02-27T10:54:23.943Z,1.80
2024-02-27T10:55:24.225Z,2.10
2024-02-27T10:56:24.523Z,1.80
2024-02-27T10:57:24.877Z,1.90
2024-02-27T10:58:25.158Z,1.90
2024-02-27T10:59:25.472Z,1.60
2024-02-27T11:00:25.814Z,2.00
2024-02-27T11:01:26.217Z,1.40
2024-02-27T11:02:26.348Z,1.70
2024-02-27T11:03:26.715Z,1.50
2024-02-27T11:04:26.974Z,1.60
2024-02-27T11:05:27.363Z,1.80
2024-02-27T11:06:27.655Z,1.60
2024-02-27T11:07:28.009Z,1.90
2024-02-27T11:08:28.066Z,2.10
2024-02-27T11:09:28.544Z,2.10
2024-02-27T11:10:28.706Z,1.70
2024-02-27T11:11:29.049Z,1.70
2024-02-27T11:12:29.354Z,2.00
2024-02-27T11:13:29.625Z,1.60
2024-02-27T11:14:29.937Z,1.70
2024-02-27T11:15:30.286Z,1.80
2024-02-27T11:16:30.552Z,1.80
2024-02-27T11:17:30.897Z,1.60
2024-02-27T11:18:31.228Z,1.70
2024-02-27T11:19:31.556Z,1.80
2024-02-27T11:20:32.192Z,1.70
2024-02-27T11:21:32.010Z,2.00
2024-02-27T11:22:32.202Z,1.70
2024-02-27T11:23:32.520Z,2.00
2024-02-27T11:24:32.815Z,2.10
2024-02-27T11:25:33.075Z,2.20
2024-02-27T11:26:35.337Z,1.90
2024-02-27T11:27:33.671Z,1.50
2024-02-27T11:28:33.948Z,1.90
2024-02-27T11:29:34.269Z,2.20
2024-02-27T11:30:34.644Z,1.70
2024-02-27T11:31:34.936Z,2.00
2024-02-27T11:32:37.754Z,1.80
2024-02-27T11:33:35.729Z,1.80
2024-02-27T11:34:35.982Z,1.90
2024-02-27T11:35:36.157Z,1.90
2024-02-27T11:36:36.489Z,1.90
2024-02-27T11:37:36.768Z,1.60
2024-02-27T11:38:39.097Z,2.20
2024-02-27T11:39:37.369Z,1.80
2024-02-27T11:40:37.656Z,1.90
2024-02-27T11:41:37.933Z,1.90
2024-02-27T11:42:38.377Z,1.80
2024-02-27T11:43:38.514Z,1.80
2024-02-27T11:44:38.969Z,2.00
2024-02-27T11:45:39.166Z,1.80
2024-02-27T11:46:39.423Z,2.00
2024-02-27T11:47:39.786Z,2.00
2024-02-27T11:48:40.191Z,1.70
2024-02-27T11:49:40.609Z,2.00
2024-02-27T11:50:40.712Z,2.00
2024-02-27T11:51:40.910Z,2.00
2024-02-27T11:52:41.163Z,2.00
2024-02-27T11:53:41.499Z,1.70
2024-02-27T11:54:41.825Z,1.90
2024-02-27T11:55:42.105Z,1.80
2024-02-27T11:56:45.602Z,1.70
2024-02-27T11:57:43.782Z,1.80
2024-02-27T11:58:42.938Z,2.00
2024-02-27T11:59:43.251Z,1.80
2024-02-27T12:00:43.640Z,1.80
2024-02-27T12:01:43.848Z,2.20
2024-02-27T12:02:44.131Z,1.90
2024-02-27T12:03:44.490Z,1.90
2024-02-27T12:04:44.960Z,2.20
2024-02-27T12:05:45.258Z,1.90
2024-02-27T12:06:45.591Z,2.30
2024-02-27T12:07:45.855Z,1.80
2024-02-27T12:08:45.892Z,1.90
2024-02-27T12:09:46.199Z,2.10
2024-02-27T12:10:46.566Z,2.00
2024-02-27T12:11:46.852Z,1.70
2024-02-27T12:12:47.219Z,2.00
2024-02-27T12:13:47.484Z,2.20
2024-02-27T12:14:47.772Z,2.20
2024-02-27T12:15:48.114Z,2.00
2024-02-27T12:16:48.386Z,2.10
2024-02-27T12:17:48.719Z,1.80
2024-02-27T12:18:49.471Z,2.20
2024-02-27T12:19:49.457Z,1.90
2024-02-27T12:20:49.584Z,2.00
2024-02-27T12:21:49.924Z,2.10
2024-02-27T12:22:50.225Z,2.20
2024-02-27T12:23:50.542Z,2.20
2024-02-27T12:24:50.869Z,2.30
2024-02-27T12:25:51.197Z,2.50
2024-02-27T12:26:51.460Z,2.00
2024-02-27T12:27:51.716Z,2.10
2024-02-27T12:28:51.977Z,2.30
2024-02-27T12:29:52.259Z,2.20
2024-02-27T12:30:52.600Z,2.70
2024-02-27T12:31:52.875Z,2.40
2024-02-27T12:32:53.383Z,2.10
2024-02-27T12:33:53.577Z,2.20
2024-02-27T12:34:53.896Z,2.10
2024-02-27T12:35:54.039Z,2.10
2024-02-27T12:36:54.411Z,2.10
2024-02-27T12:37:54.617Z,2.50
2024-02-27T12:38:54.936Z,2.20
2024-02-27T12:39:55.248Z,2.40
2024-02-27T12:40:55.554Z,2.80
2024-02-27T12:41:55.846Z,2.50
2024-02-27T12:42:56.281Z,2.40
2024-02-27T12:43:56.461Z,2.30
2024-02-27T12:44:56.748Z,2.00
2024-02-27T12:45:57.134Z,2.40
2024-02-27T12:46:57.377Z,2.40
2024-02-27T12:47:57.787Z,2.60
2024-02-27T12:48:58.092Z,2.30
2024-02-27T12:49:58.283Z,2.30
2024-02-27T12:50:58.527Z,2.30
2024-02-27T12:51:58.843Z,2.00
2024-02-27T12:53:06.865Z,2.10
2024-02-27T12:54:00.436Z,2.10
2024-02-27T12:54:59.708Z,2.60
2024-02-27T12:55:59.977Z,2.50
2024-02-27T12:57:00.256Z,2.50
2024-02-27T12:58:00.571Z,2.40
2024-02-27T12:59:00.888Z,2.60
2024-02-27T13:00:01.253Z,2.40
2024-02-27T13:01:01.644Z,2.10
2024-02-27T13:02:01.784Z,2.30
2024-02-27T13:03:02.251Z,2.30
2024-02-27T13:04:02.521Z,2.50
2024-02-27T13:05:02.931Z,2.40
2024-02-27T13:06:03.235Z,2.40
2024-02-27T13:07:03.271Z,2.30
2024-02-27T13:08:03.640Z,2.50
2024-02-27T13:09:03.820Z,2.60
2024-02-27T13:10:04.017Z,4.40
2024-02-27T13:11:04.346Z,3.30
2024-02-27T13:12:04.649Z,3.60
2024-02-27T13:13:04.906Z,3.40
2024-02-27T13:14:05.216Z,2.80
2024-02-27T13:15:05.573Z,3.00
2024-02-27T13:16:05.851Z,3.20
2024-02-27T13:17:06.151Z,3.00
2024-02-27T13:18:07.101Z,3.30
2024-02-27T13:19:06.870Z,2.90
2024-02-27T13:20:07.056Z,2.80
2024-02-27T13:21:07.395Z,2.60
2024-02-27T13:22:07.725Z,3.50
2024-02-27T13:23:16.200Z,3.10